createdAt,value
2023-08-14T00:04:41.910Z,4.50
2023-08-14T00:11:07.418Z,4.60
2023-08-14T00:16:56.676Z,4.30
2023-08-14T00:23:12.811Z,4.40
2023-08-14T00:29:40.262Z,5.00
2023-08-14T00:36:07.275Z,4.50
2023-08-14T00:42:33.703Z,4.10
2023-08-14T00:55:30.405Z,3.90
2023-08-14T01:00:56.519Z,4.40
2023-08-14T01:06:24.655Z,4.90
2023-08-14T01:12:37.937Z,4.60
2023-08-14T01:17:52.850Z,5.00
2023-08-14T01:24:14.318Z,4.90
2023-08-14T01:29:52.907Z,4.90
2023-08-14T01:35:01.230Z,4.20
2023-08-14T01:40:17.737Z,6.00
2023-08-14T01:46:02.488Z,5.20
2023-08-14T01:51:43.298Z,4.60
2023-08-14T01:56:50.495Z,4.20
2023-08-14T02:02:03.143Z,4.20
2023-08-14T02:07:08.598Z,4.20
2023-08-14T02:12:37.042Z,4.60
2023-08-14T02:18:17.485Z,4.60
2023-08-14T02:23:25.714Z,4.50
2023-08-14T02:28:48.275Z,4.80
2023-08-14T02:35:00.350Z,4.80
2023-08-14T02:40:46.305Z,5.20
2023-08-14T02:45:51.022Z,4.60
2023-08-14T02:51:30.072Z,4.90
2023-08-14T02:56:42.445Z,5.30
2023-08-14T03:02:18.318Z,5.30
2023-08-14T03:07:46.551Z,4.80
2023-08-14T03:13:31.106Z,5.40
2023-08-14T03:18:51.506Z,5.30
2023-08-14T03:24:45.946Z,6.10
2023-08-14T03:31:05.124Z,5.30
2023-08-14T03:37:34.130Z,5.70
2023-08-14T03:44:00.051Z,5.20
2023-08-14T03:50:28.389Z,5.60
2023-08-14T05:45:32.508Z,4.30
2023-08-14T05:51:30.858Z,3.60
2023-08-14T05:57:45.601Z,3.60
2023-08-14T06:04:11.296Z,3.30
2023-08-14T06:15:59.750Z,3.40
2023-08-14T06:21:05.060Z,3.60
2023-08-14T06:26:10.822Z,3.30
2023-08-14T06:31:19.711Z,3.90
2023-08-14T06:36:24.426Z,4.10
2023-08-14T06:41:56.289Z,3.70
2023-08-14T06:48:04.393Z,3.50
2023-08-14T06:53:58.331Z,3.00
2023-08-14T06:59:46.712Z,3.40
2023-08-14T07:06:05.793Z,3.30
2023-08-14T07:12:09.638Z,3.00
2023-08-14T07:18:34.416Z,2.80
2023-08-14T07:24:50.099Z,3.40
2023-08-14T07:30:20.176Z,3.10
2023-08-14T07:36:20.797Z,3.40
2023-08-14T07:41:32.277Z,3.20
2023-08-14T07:47:42.947Z,3.40
2023-08-14T07:53:19.912Z,2.80
2023-08-14T07:59:22.497Z,2.80
2023-08-14T08:05:20.887Z,3.00
2023-08-14T08:10:55.502Z,3.30
2023-08-14T08:16:39.808Z,2.90
2023-08-14T08:22:19.183Z,2.80
2023-08-14T08:28:33.629Z,2.70
2023-08-14T08:34:30.763Z,3.40
2023-08-14T08:40:35.649Z,3.10
2023-08-14T08:47:00.790Z,3.20
2023-08-14T08:53:25.731Z,2.70
2023-08-14T08:59:39.297Z,3.40
2023-08-14T09:05:58.121Z,3.30
2023-08-14T09:11:54.250Z,3.00
2023-08-14T09:17:52.011Z,3.00
2023-08-14T09:23:22.074Z,2.90
2023-08-14T09:29:14.702Z,2.80
2023-08-14T09:35:10.695Z,2.80
2023-08-14T09:41:39.078Z,3.00
2023-08-14T09:48:04.254Z,3.00
2023-08-14T10:00:45.265Z,2.90
2023-08-14T10:07:10.651Z,2.80
2023-08-14T10:13:18.907Z,2.90
2023-08-14T10:19:04.173Z,3.20
2023-08-14T10:25:18.298Z,2.70
2023-08-14T10:31:34.061Z,3.50
2023-08-14T10:37:39.481Z,4.20
2023-08-14T10:43:45.385Z,2.60
2023-08-14T10:49:49.839Z,3.60
2023-08-14T10:55:20.788Z,3.10
2023-08-14T11:00:47.357Z,3.70
2023-08-14T11:06:01.801Z,2.60
2023-08-14T11:11:32.799Z,4.40
2023-08-14T11:16:54.045Z,3.10
2023-08-14T11:22:17.731Z,3.00
2023-08-14T11:27:25.052Z,3.20
2023-08-14T11:32:33.443Z,3.40
2023-08-14T11:38:16.538Z,3.90
2023-08-14T11:44:20.520Z,3.50
2023-08-14T11:50:02.676Z,3.70
2023-08-14T11:55:25.292Z,3.20
2023-08-14T12:01:39.004Z,3.50
2023-08-14T12:07:46.444Z,3.40
2023-08-14T12:13:43.793Z,3.30
2023-08-14T12:19:22.350Z,3.10
2023-08-14T12:25:28.396Z,3.40
2023-08-14T12:31:15.726Z,3.40
2023-08-14T12:36:23.541Z,3.40
2023-08-14T12:42:04.324Z,3.30
2023-08-14T12:47:56.852Z,3.60
2023-08-14T12:53:45.110Z,3.50
2023-08-14T12:59:42.728Z,3.50
2023-08-14T13:06:00.969Z,3.70
2023-08-14T13:11:23.284Z,3.60
2023-08-14T13:17:05.830Z,3.30
2023-08-14T13:22:24.856Z,3.30
2023-08-14T13:33:51.231Z,3.30
2023-08-14T13:39:03.271Z,3.10
2023-08-14T13:44:48.841Z,3.50
2023-08-14T13:50:22.986Z,3.30
2023-08-14T13:55:45.222Z,3.20
2023-08-14T14:01:28.772Z,3.20
2023-08-14T14:06:48.942Z,3.30
2023-08-14T14:12:44.454Z,3.50
2023-08-14T14:17:59.009Z,3.30
2023-08-14T14:23:31.661Z,3.70
2023-08-14T14:29:40.929Z,3.20
2023-08-14T14:35:15.524Z,3.40
2023-08-14T14:40:24.899Z,3.20
2023-08-14T14:45:54.043Z,3.30
2023-08-14T14:51:58.846Z,3.20
2023-08-14T14:57:24.295Z,3.50
2023-08-14T15:02:37.551Z,3.50
2023-08-14T15:07:50.703Z,4.80
2023-08-14T15:13:10.561Z,3.50
2023-08-14T15:18:56.309Z,3.30
2023-08-14T15:25:04.135Z,3.20
2023-08-14T15:30:50.455Z,3.40
2023-08-14T15:36:26.356Z,3.60
2023-08-14T15:41:34.048Z,2.90
2023-08-14T15:46:45.654Z,3.20
2023-08-14T15:52:16.409Z,3.20
2023-08-14T15:57:24.221Z,3.40
2023-08-14T16:02:28.791Z,3.10
2023-08-14T16:07:43.235Z,3.30
2023-08-14T16:12:49.361Z,4.00
2023-08-14T16:17:54.213Z,4.00
2023-08-14T16:22:59.600Z,4.30
2023-08-14T16:28:05.150Z,3.80
2023-08-14T16:33:10.622Z,4.00
2023-08-14T16:38:23.299Z,4.30
2023-08-14T16:43:37.945Z,4.00
2023-08-14T16:48:42.447Z,3.70
2023-08-14T16:53:46.802Z,4.10
2023-08-14T16:58:57.067Z,4.00
2023-08-14T17:04:42.196Z,3.90
2023-08-14T17:09:59.475Z,5.70
2023-08-14T17:20:32.301Z,4.90
2023-08-14T17:25:44.800Z,5.10
2023-08-14T17:31:52.748Z,4.50
2023-08-14T17:37:41.586Z,7.30
2023-08-14T17:43:36.265Z,4.80
2023-08-14T17:49:18.161Z,6.40
2023-08-14T17:55:37.119Z,4.80
2023-08-14T18:02:03.116Z,4.30
2023-08-14T18:08:09.641Z,5.00
2023-08-14T18:13:48.877Z,4.20
2023-08-14T18:18:58.223Z,4.30
2023-08-14T18:25:33.249Z,4.40
2023-08-14T18:31:49.960Z,5.60
2023-08-14T18:37:49.694Z,5.80
2023-08-14T18:49:46.155Z,6.20
2023-08-14T18:55:51.116Z,5.00
2023-08-14T19:02:12.935Z,3.80
2023-08-14T19:07:39.440Z,3.80
2023-08-14T19:13:46.876Z,4.20
2023-08-14T19:19:37.252Z,3.60
2023-08-14T19:26:26.153Z,3.70
2023-08-14T19:32:56.386Z,3.70
2023-08-14T19:39:21.851Z,3.90
2023-08-14T19:45:42.150Z,4.20
2023-08-14T19:58:21.255Z,5.90
2023-08-14T20:04:25.549Z,8.10
2023-08-14T20:10:26.846Z,8.90
2023-08-14T20:16:48.896Z,6.90
2023-08-14T20:23:04.013Z,10.10
2023-08-14T20:29:20.868Z,8.90
2023-08-14T20:34:30.277Z,8.30
2023-08-14T20:40:12.793Z,7.60
2023-08-14T20:46:25.101Z,9.20
2023-08-14T20:52:26.763Z,7.40
2023-08-14T20:58:55.467Z,6.70
2023-08-14T21:04:30.715Z,5.90
2023-08-14T21:10:20.577Z,5.40
2023-08-14T21:16:28.980Z,4.50
2023-08-14T21:21:51.226Z,5.50
2023-08-14T21:27:16.970Z,5.80
2023-08-14T21:32:25.181Z,5.50
2023-08-14T21:37:50.139Z,5.60
2023-08-14T21:42:58.672Z,5.80
2023-08-14T21:48:21.340Z,5.70
2023-08-14T21:53:44.195Z,7.10
2023-08-14T21:59:28.677Z,12.60
2023-08-14T22:04:42.863Z,11.80
2023-08-14T22:10:45.518Z,9.00
2023-08-14T22:17:11.552Z,8.10
2023-08-14T22:22:57.035Z,7.30
2023-08-14T22:29:01.524Z,7.20
2023-08-14T22:35:18.843Z,6.90
2023-08-14T22:41:03.937Z,5.90
2023-08-14T22:46:42.126Z,7.70
2023-08-14T22:52:31.105Z,8.20
2023-08-14T22:58:35.832Z,5.90
2023-08-14T23:05:01.231Z,6.60
2023-08-14T23:11:28.694Z,7.10
2023-08-14T23:17:07.331Z,7.10
2023-08-14T23:23:33.968Z,6.50
2023-08-14T23:42:24.603Z,5.80
2023-08-14T23:47:52.808Z,5.70
2023-08-14T23:53:57.950Z,5.70
2023-08-14T23:59:25.819Z,6.30
